createdAt,value
2018-08-16T00:02:13.855Z,2.40
2018-08-16T00:04:41.721Z,2.33
2018-08-16T00:07:09.568Z,2.43
2018-08-16T00:09:37.396Z,1.73
2018-08-16T00:12:05.227Z,2.50
2018-08-16T00:14:33.060Z,1.93
2018-08-16T00:17:00.911Z,2.30
2018-08-16T00:19:28.727Z,2.20
2018-08-16T00:21:56.538Z,2.00
2018-08-16T00:24:24.371Z,2.50
2018-08-16T00:26:52.195Z,2.20
2018-08-16T00:29:20.135Z,2.47
2018-08-16T00:31:47.966Z,2.37
2018-08-16T00:34:15.858Z,1.77
2018-08-16T00:36:43.707Z,1.73
2018-08-16T00:39:11.520Z,2.07
2018-08-16T00:41:39.714Z,2.07
2018-08-16T00:44:07.563Z,2.03
2018-08-16T00:46:35.398Z,2.33
2018-08-16T00:49:03.249Z,2.10
2018-08-16T00:51:31.407Z,2.13
2018-08-16T00:53:59.355Z,2.17
2018-08-16T00:56:27.291Z,2.50
2018-08-16T00:58:55.114Z,2.57
2018-08-16T01:01:23.245Z,2.40
2018-08-16T01:03:51.069Z,2.23
2018-08-16T01:06:18.887Z,1.93
2018-08-16T01:08:46.715Z,2.00
2018-08-16T01:11:14.705Z,2.40
2018-08-16T01:13:42.535Z,2.17
2018-08-16T01:16:10.342Z,2.10
2018-08-16T01:18:38.272Z,2.50
2018-08-16T01:21:06.195Z,2.60
2018-08-16T01:23:34.015Z,2.10
2018-08-16T01:26:01.844Z,2.57
2018-08-16T01:28:29.662Z,2.10
2018-08-16T01:30:57.582Z,2.23
2018-08-16T01:33:25.454Z,2.13
2018-08-16T01:35:53.295Z,2.10
2018-08-16T01:38:21.114Z,2.53
2018-08-16T01:40:48.946Z,2.37
2018-08-16T01:43:16.796Z,2.20
2018-08-16T01:45:44.604Z,2.20
2018-08-16T01:48:13.160Z,2.47
2018-08-16T01:50:41.038Z,2.37
2018-08-16T01:53:08.903Z,2.47
2018-08-16T01:55:36.719Z,2.40
2018-08-16T01:58:04.776Z,2.37
2018-08-16T02:00:32.591Z,2.00
2018-08-16T02:03:00.430Z,2.20
2018-08-16T02:05:28.295Z,2.20
2018-08-16T02:07:56.166Z,2.07
2018-08-16T02:10:24.167Z,2.37
2018-08-16T02:12:51.986Z,2.40
2018-08-16T02:15:19.826Z,2.30
2018-08-16T02:17:47.646Z,2.50
2018-08-16T02:20:15.759Z,2.10
2018-08-16T02:22:44.495Z,2.40
2018-08-16T02:25:12.444Z,2.80
2018-08-16T02:27:40.332Z,2.43
2018-08-16T02:30:08.899Z,2.70
2018-08-16T02:32:37.378Z,2.40
2018-08-16T02:35:05.263Z,2.33
2018-08-16T02:37:33.508Z,2.63
2018-08-16T02:40:01.340Z,2.70
2018-08-16T02:42:29.143Z,2.73
2018-08-16T02:44:56.995Z,2.60
2018-08-16T02:47:24.832Z,2.90
2018-08-16T02:49:52.700Z,2.57
2018-08-16T02:52:20.556Z,2.60
2018-08-16T02:54:48.403Z,2.80
2018-08-16T02:57:16.255Z,2.47
2018-08-16T02:59:44.215Z,2.30
2018-08-16T03:02:12.063Z,2.77
2018-08-16T03:04:39.882Z,3.00
2018-08-16T03:07:07.746Z,2.67
2018-08-16T03:09:35.612Z,3.23
2018-08-16T03:12:03.584Z,3.70
2018-08-16T03:14:31.415Z,2.57
2018-08-16T03:16:59.252Z,2.90
2018-08-16T03:19:27.087Z,2.73
2018-08-16T03:21:54.915Z,2.60
2018-08-16T03:24:22.726Z,2.80
2018-08-16T03:26:50.798Z,2.70
2018-08-16T03:29:18.623Z,2.87
2018-08-16T03:31:46.486Z,2.70
2018-08-16T03:34:14.311Z,2.60
2018-08-16T03:36:42.151Z,3.43
2018-08-16T03:39:10.099Z,2.80
2018-08-16T03:41:38.107Z,2.80
2018-08-16T03:44:06.683Z,3.10
2018-08-16T03:46:34.483Z,2.67
2018-08-16T03:49:02.315Z,3.20
2018-08-16T03:51:30.180Z,2.70
2018-08-16T03:53:58.058Z,2.50
2018-08-16T03:56:25.964Z,2.60
2018-08-16T03:58:53.776Z,2.80
2018-08-16T04:01:21.734Z,2.77
2018-08-16T04:03:49.588Z,3.07
2018-08-16T04:06:17.436Z,3.10
2018-08-16T04:08:45.259Z,3.27
2018-08-16T04:11:13.083Z,3.07
2018-08-16T04:13:40.936Z,3.00
2018-08-16T04:16:09.206Z,3.60
2018-08-16T04:18:37.438Z,3.43
2018-08-16T04:21:06.100Z,3.20
2018-08-16T04:23:34.627Z,3.27
2018-08-16T04:26:03.195Z,3.57
2018-08-16T04:28:31.631Z,3.20
2018-08-16T04:31:00.080Z,3.53
2018-08-16T04:33:28.741Z,4.23
2018-08-16T04:35:57.353Z,3.20
2018-08-16T04:38:25.996Z,3.20
2018-08-16T04:40:54.614Z,3.40
2018-08-16T04:43:23.054Z,3.57
2018-08-16T04:45:51.540Z,3.47
2018-08-16T04:48:19.896Z,3.53
2018-08-16T04:50:48.450Z,3.03
2018-08-16T04:53:17.006Z,3.30
2018-08-16T04:55:45.449Z,3.00
2018-08-16T04:58:13.888Z,3.50
2018-08-16T05:00:42.340Z,3.07
2018-08-16T05:03:11.159Z,2.80
2018-08-16T05:05:39.598Z,2.70
2018-08-16T05:08:08.053Z,2.50
2018-08-16T05:10:36.674Z,2.70
2018-08-16T05:13:05.081Z,3.10
2018-08-16T05:15:34.746Z,3.30
2018-08-16T05:18:03.247Z,2.80
2018-08-16T05:20:31.603Z,2.90
2018-08-16T05:22:59.859Z,2.83
2018-08-16T05:25:28.363Z,2.67
2018-08-16T05:27:56.935Z,3.40
2018-08-16T05:30:25.371Z,2.60
2018-08-16T05:32:53.830Z,2.67
2018-08-16T05:35:22.382Z,2.63
2018-08-16T05:37:50.726Z,2.67
2018-08-16T05:40:19.172Z,2.43
2018-08-16T05:42:47.766Z,2.43
2018-08-16T05:45:16.210Z,2.87
2018-08-16T05:47:44.646Z,3.00
2018-08-16T05:50:13.778Z,2.67
2018-08-16T05:52:43.284Z,2.93
2018-08-16T05:55:11.739Z,2.43
2018-08-16T05:57:39.974Z,3.07
2018-08-16T06:00:09.158Z,3.27
2018-08-16T06:02:37.675Z,2.77
2018-08-16T06:05:06.502Z,2.63
2018-08-16T06:07:35.164Z,3.40
2018-08-16T06:10:03.627Z,2.93
2018-08-16T06:12:31.964Z,3.00
2018-08-16T06:15:00.471Z,3.43
2018-08-16T06:17:29.068Z,3.07
2018-08-16T06:19:57.511Z,2.97
2018-08-16T06:22:26.103Z,2.83
2018-08-16T06:24:54.392Z,2.70
2018-08-16T06:27:23.009Z,2.80
2018-08-16T06:29:51.477Z,3.33
2018-08-16T06:32:19.923Z,2.97
2018-08-16T06:34:48.543Z,2.93
2018-08-16T06:37:16.980Z,2.60
2018-08-16T06:39:45.428Z,3.07
2018-08-16T06:42:13.844Z,2.40
2018-08-16T06:44:42.347Z,2.70
2018-08-16T06:47:15.006Z,2.80
2018-08-16T06:49:43.785Z,2.93
2018-08-16T06:52:12.339Z,3.40
2018-08-16T06:54:40.621Z,3.97
2018-08-16T06:57:09.054Z,2.60
2018-08-16T06:59:37.659Z,2.90
2018-08-16T07:02:06.309Z,3.00
2018-08-16T07:04:35.059Z,2.70
2018-08-16T07:07:03.747Z,2.90
2018-08-16T07:09:32.035Z,2.80
2018-08-16T07:12:00.716Z,3.00
2018-08-16T07:14:29.164Z,3.00
2018-08-16T07:16:57.727Z,3.13
2018-08-16T07:19:26.356Z,3.40
2018-08-16T07:21:54.801Z,2.63
2018-08-16T07:24:23.258Z,2.90
2018-08-16T07:26:51.923Z,3.17
2018-08-16T07:29:20.685Z,4.00
2018-08-16T07:31:49.142Z,3.20
2018-08-16T07:34:17.588Z,2.77
2018-08-16T07:36:46.020Z,3.13
2018-08-16T07:39:14.473Z,2.60
2018-08-16T07:41:43.124Z,2.83
2018-08-16T07:44:11.748Z,3.03
2018-08-16T07:46:40.551Z,3.00
2018-08-16T07:49:09.011Z,3.20
2018-08-16T07:51:37.897Z,2.90
2018-08-16T07:54:06.280Z,2.87
2018-08-16T07:56:34.487Z,2.90
2018-08-16T07:59:03.010Z,3.30
2018-08-16T08:01:31.616Z,2.73
2018-08-16T08:04:00.246Z,3.67
2018-08-16T08:06:28.897Z,3.40
2018-08-16T08:08:57.302Z,3.20
2018-08-16T08:11:25.777Z,3.67
2018-08-16T08:13:54.158Z,2.97
2018-08-16T08:16:22.649Z,3.30
2018-08-16T08:18:51.249Z,2.73
2018-08-16T08:21:19.536Z,2.70
2018-08-16T08:23:48.147Z,3.30
2018-08-16T08:26:16.792Z,3.50
2018-08-16T08:28:45.420Z,3.13
2018-08-16T08:31:13.875Z,3.80
2018-08-16T08:33:42.522Z,3.30
2018-08-16T08:36:15.880Z,3.30
2018-08-16T08:38:44.268Z,3.20
2018-08-16T08:41:12.710Z,3.07
2018-08-16T08:43:46.401Z,3.03
2018-08-16T08:46:14.920Z,3.30
2018-08-16T08:48:43.566Z,3.17
2018-08-16T08:51:11.963Z,2.90
2018-08-16T08:54:45.056Z,3.53
2018-08-16T08:57:18.270Z,2.83
2018-08-16T08:59:46.921Z,2.90
2018-08-16T09:02:15.573Z,3.80
2018-08-16T09:04:44.168Z,2.93
2018-08-16T09:07:13.218Z,3.03
2018-08-16T09:09:47.390Z,3.10
2018-08-16T09:12:20.940Z,3.00
2018-08-16T09:14:54.662Z,3.23
2018-08-16T09:17:22.896Z,3.10
2018-08-16T09:19:51.363Z,2.93
2018-08-16T09:22:19.773Z,2.90
2018-08-16T09:24:48.221Z,2.80
2018-08-16T09:27:16.864Z,2.87
2018-08-16T09:30:16.679Z,2.97
2018-08-16T09:32:50.530Z,2.53
2018-08-16T09:35:19.132Z,2.80
2018-08-16T09:37:47.591Z,2.70
2018-08-16T09:40:16.064Z,2.80
2018-08-16T09:42:44.652Z,2.80
2018-08-16T09:45:18.063Z,2.80
2018-08-16T09:47:51.986Z,2.90
2018-08-16T09:50:20.621Z,2.43
2018-08-16T09:52:49.253Z,2.53
2018-08-16T09:55:17.877Z,2.57
2018-08-16T09:57:46.490Z,2.87
2018-08-16T10:00:15.160Z,2.97
2018-08-16T10:02:43.764Z,3.27
2018-08-16T10:05:12.257Z,2.90
2018-08-16T10:07:40.844Z,3.23
2018-08-16T10:10:09.447Z,2.90
2018-08-16T10:12:37.704Z,2.30
2018-08-16T10:15:05.995Z,2.60
2018-08-16T10:17:34.604Z,2.70
2018-08-16T10:20:03.259Z,2.70
2018-08-16T10:22:31.896Z,3.30
2018-08-16T10:25:00.508Z,2.70
2018-08-16T10:27:28.947Z,2.60
2018-08-16T10:29:57.591Z,2.83
2018-08-16T10:32:25.994Z,2.63
2018-08-16T10:34:54.448Z,2.77
2018-08-16T10:37:22.722Z,2.40
2018-08-16T10:39:51.360Z,2.40
2018-08-16T10:42:19.986Z,2.40
2018-08-16T10:44:48.439Z,2.60
2018-08-16T10:47:16.845Z,2.60
2018-08-16T10:49:45.131Z,2.30
2018-08-16T10:52:13.563Z,2.30
2018-08-16T10:54:42.176Z,2.07
2018-08-16T10:57:10.639Z,2.27
2018-08-16T10:59:39.055Z,2.50
2018-08-16T11:02:07.499Z,2.50
2018-08-16T11:04:35.629Z,2.17
2018-08-16T11:07:04.178Z,2.40
2018-08-16T11:09:32.668Z,2.57
2018-08-16T11:12:01.224Z,2.83
2018-08-16T11:14:29.700Z,2.20
2018-08-16T11:16:57.904Z,2.90
2018-08-16T11:19:26.410Z,2.30
2018-08-16T11:21:54.787Z,2.80
2018-08-16T11:24:23.046Z,2.37
2018-08-16T11:26:51.543Z,2.50
2018-08-16T11:29:20.184Z,2.67
2018-08-16T11:31:48.796Z,2.43
2018-08-16T11:34:17.419Z,2.33
2018-08-16T11:36:45.815Z,2.43
2018-08-16T11:39:14.295Z,2.50
2018-08-16T11:41:42.983Z,2.70
2018-08-16T11:44:11.344Z,2.20
2018-08-16T11:46:39.608Z,2.33
2018-08-16T11:49:08.011Z,2.07
2018-08-16T11:51:36.468Z,2.00
2018-08-16T11:54:04.751Z,2.13
2018-08-16T11:56:33.376Z,1.97
2018-08-16T11:59:02.006Z,1.83
2018-08-16T12:01:30.658Z,2.17
2018-08-16T12:03:59.111Z,2.30
2018-08-16T12:06:27.782Z,2.20
2018-08-16T12:08:56.358Z,1.90
2018-08-16T12:11:24.995Z,2.00
2018-08-16T12:13:54.133Z,1.90
2018-08-16T12:16:22.443Z,2.00
2018-08-16T12:18:50.672Z,2.27
2018-08-16T12:21:18.914Z,2.20
2018-08-16T12:23:47.414Z,2.00
2018-08-16T12:26:16.015Z,1.90
2018-08-16T12:28:44.472Z,2.20
2018-08-16T12:31:13.112Z,2.07
2018-08-16T12:33:41.756Z,1.70
2018-08-16T12:36:10.594Z,1.93
2018-08-16T12:38:39.217Z,1.50
2018-08-16T12:41:07.918Z,1.93
2018-08-16T12:43:37.175Z,1.83
2018-08-16T12:46:06.128Z,2.00
2018-08-16T12:48:34.461Z,2.10
2018-08-16T12:51:02.981Z,1.70
2018-08-16T12:53:31.430Z,2.00
2018-08-16T12:56:00.050Z,1.70
2018-08-16T12:58:28.682Z,1.57
2018-08-16T13:00:57.339Z,1.47
2018-08-16T13:03:25.765Z,1.63
2018-08-16T13:05:54.405Z,2.27
2018-08-16T13:08:23.030Z,1.73
2018-08-16T13:10:51.487Z,1.77
2018-08-16T13:13:19.875Z,1.60
2018-08-16T13:15:48.559Z,1.30
2018-08-16T13:18:17.212Z,1.40
2018-08-16T13:20:45.820Z,1.30
2018-08-16T13:23:14.268Z,1.70
2018-08-16T13:25:42.927Z,1.80
2018-08-16T13:28:11.545Z,1.67
2018-08-16T13:30:39.984Z,1.43
2018-08-16T13:33:08.622Z,1.67
2018-08-16T13:35:37.273Z,1.40
2018-08-16T13:38:05.683Z,1.47
2018-08-16T13:40:34.118Z,1.50
2018-08-16T13:43:02.584Z,1.40
2018-08-16T13:45:31.201Z,1.50
2018-08-16T13:47:59.659Z,1.43
2018-08-16T13:50:28.331Z,1.50
2018-08-16T13:52:56.683Z,1.83
2018-08-16T13:55:24.936Z,1.60
2018-08-16T13:57:53.226Z,1.50
2018-08-16T14:00:21.839Z,1.40
2018-08-16T14:02:50.283Z,1.57
2018-08-16T14:05:18.717Z,1.30
2018-08-16T14:07:47.170Z,1.40
2018-08-16T14:10:15.594Z,1.30
2018-08-16T14:12:44.090Z,1.43
2018-08-16T14:15:12.667Z,1.33
2018-08-16T14:17:40.993Z,1.40
2018-08-16T14:20:09.634Z,1.20
2018-08-16T14:22:38.523Z,1.50
2018-08-16T14:25:07.033Z,1.20
2018-08-16T14:27:35.659Z,1.40
2018-08-16T14:30:03.952Z,1.60
2018-08-16T14:32:32.598Z,1.50
2018-08-16T14:35:01.183Z,1.10
2018-08-16T14:37:29.607Z,1.30
2018-08-16T14:39:58.033Z,1.33
2018-08-16T14:42:26.670Z,1.40
2018-08-16T14:44:55.122Z,1.40
2018-08-16T14:47:24.075Z,1.20
2018-08-16T14:49:52.786Z,1.10
2018-08-16T14:52:21.243Z,1.50
2018-08-16T14:54:50.048Z,1.30
2018-08-16T14:57:18.520Z,1.13
2018-08-16T14:59:47.148Z,1.43
2018-08-16T15:02:15.570Z,1.30
2018-08-16T15:04:43.795Z,1.30
2018-08-16T15:07:12.050Z,1.77
2018-08-16T15:09:40.292Z,1.27
2018-08-16T15:12:08.928Z,1.17
2018-08-16T15:14:37.418Z,1.60
2018-08-16T15:17:05.811Z,1.30
2018-08-16T15:19:34.440Z,1.40
2018-08-16T15:22:03.130Z,1.70
2018-08-16T15:24:31.506Z,1.20
2018-08-16T15:26:59.895Z,1.57
2018-08-16T15:29:28.488Z,1.70
2018-08-16T15:31:57.054Z,1.70
2018-08-16T15:34:25.698Z,1.57
2018-08-16T15:36:54.107Z,1.50
2018-08-16T15:39:22.575Z,1.50
2018-08-16T15:41:51.094Z,1.60
2018-08-16T15:44:19.678Z,2.00
2018-08-16T15:46:48.284Z,1.33
2018-08-16T15:49:16.694Z,1.63
2018-08-16T15:51:44.918Z,1.70
2018-08-16T15:54:13.432Z,2.00
2018-08-16T15:56:42.043Z,1.70
2018-08-16T15:59:10.775Z,1.83
2018-08-16T16:01:39.335Z,1.83
2018-08-16T16:04:07.958Z,2.13
2018-08-16T16:06:36.580Z,2.00
2018-08-16T16:09:06.597Z,1.83
2018-08-16T16:11:35.255Z,2.00
2018-08-16T16:14:03.892Z,1.90
2018-08-16T16:16:32.514Z,2.07
2018-08-16T16:19:00.899Z,1.70
2018-08-16T16:21:29.555Z,1.70
2018-08-16T16:23:58.022Z,1.80
2018-08-16T16:26:26.233Z,1.90
2018-08-16T16:28:54.691Z,1.63
2018-08-16T16:31:23.194Z,2.00
2018-08-16T16:33:51.582Z,1.70
2018-08-16T16:36:19.806Z,2.00
2018-08-16T16:38:48.038Z,2.10
2018-08-16T16:41:16.311Z,2.63
2018-08-16T16:43:44.969Z,1.67
2018-08-16T16:46:13.603Z,1.50
2018-08-16T16:48:42.234Z,1.87
2018-08-16T16:51:10.683Z,1.63
2018-08-16T16:53:39.314Z,1.70
2018-08-16T16:56:07.938Z,1.80
2018-08-16T16:58:36.564Z,2.17
2018-08-16T17:01:05.205Z,1.90
2018-08-16T17:03:33.753Z,1.90
2018-08-16T17:06:02.070Z,1.63
2018-08-16T17:08:30.298Z,1.30
2018-08-16T17:10:58.599Z,1.53
2018-08-16T17:13:27.215Z,1.40
2018-08-16T17:15:55.843Z,1.30
2018-08-16T17:18:24.508Z,1.47
2018-08-16T17:20:53.139Z,1.40
2018-08-16T17:23:21.422Z,1.20
2018-08-16T17:25:49.981Z,1.40
2018-08-16T17:28:18.224Z,1.30
2018-08-16T17:30:46.685Z,1.37
2018-08-16T17:33:15.143Z,1.50
2018-08-16T17:35:43.571Z,1.63
2018-08-16T17:38:11.983Z,1.67
2018-08-16T17:40:40.447Z,1.20
2018-08-16T17:43:09.085Z,1.60
2018-08-16T17:45:37.731Z,1.57
2018-08-16T17:48:06.347Z,1.47
2018-08-16T17:50:34.779Z,1.20
2018-08-16T17:53:03.252Z,1.50
2018-08-16T17:55:31.858Z,1.60
2018-08-16T17:58:00.506Z,1.50
2018-08-16T18:00:28.971Z,1.70
2018-08-16T18:02:57.380Z,1.43
2018-08-16T18:05:26.026Z,1.70
2018-08-16T18:07:54.839Z,1.47
2018-08-16T18:10:23.280Z,1.70
2018-08-16T18:12:51.499Z,1.73
2018-08-16T18:15:19.976Z,1.97
2018-08-16T18:17:48.423Z,1.80
2018-08-16T18:20:16.828Z,1.60
2018-08-16T18:22:45.054Z,2.00
2018-08-16T18:25:13.759Z,1.77
2018-08-16T18:27:42.379Z,1.90
2018-08-16T18:30:11.911Z,1.70
2018-08-16T18:32:40.623Z,2.20
2018-08-16T18:35:09.266Z,1.93
2018-08-16T18:37:37.900Z,3.50
2018-08-16T18:40:06.402Z,1.90
2018-08-16T18:42:35.006Z,2.10
2018-08-16T18:45:03.399Z,2.30
2018-08-16T18:47:32.064Z,1.90
2018-08-16T18:50:00.673Z,1.90
2018-08-16T18:52:29.304Z,2.00
2018-08-16T18:54:57.751Z,2.10
2018-08-16T18:57:26.192Z,1.97
2018-08-16T18:59:54.833Z,1.90
2018-08-16T19:02:23.474Z,1.90
2018-08-16T19:04:52.138Z,2.03
2018-08-16T19:07:20.776Z,2.10
2018-08-16T19:09:49.385Z,2.30
2018-08-16T19:12:17.865Z,2.40
2018-08-16T19:14:46.464Z,2.10
2018-08-16T19:17:15.266Z,2.57
2018-08-16T19:19:43.747Z,1.93
2018-08-16T19:22:12.364Z,2.40
2018-08-16T19:24:40.762Z,2.20
2018-08-16T19:27:08.935Z,2.47
2018-08-16T19:29:37.546Z,2.60
2018-08-16T19:32:06.116Z,2.60
2018-08-16T19:34:34.554Z,2.37
2018-08-16T19:37:02.775Z,2.30
2018-08-16T19:39:31.012Z,2.87
2018-08-16T19:41:59.276Z,2.57
2018-08-16T19:44:27.169Z,2.83
2018-08-16T19:46:54.972Z,2.40
2018-08-16T19:49:22.809Z,2.57
2018-08-16T19:51:50.651Z,2.77
2018-08-16T19:54:18.458Z,2.60
2018-08-16T19:56:46.280Z,2.47
2018-08-16T19:59:14.117Z,2.40
2018-08-16T20:01:42.901Z,2.70
2018-08-16T20:04:11.270Z,2.90
2018-08-16T20:06:39.523Z,2.93
2018-08-16T20:09:08.706Z,3.00
2018-08-16T20:11:37.035Z,3.50
2018-08-16T20:14:05.454Z,4.00
2018-08-16T20:16:33.728Z,4.20
2018-08-16T20:19:02.374Z,3.93
2018-08-16T20:21:30.961Z,4.20
2018-08-16T20:23:59.191Z,4.50
2018-08-16T20:26:27.663Z,3.97
2018-08-16T20:28:56.548Z,4.00
2018-08-16T20:31:24.983Z,3.20
2018-08-16T20:33:53.441Z,3.53
2018-08-16T20:36:21.266Z,3.30
2018-08-16T20:38:49.643Z,3.47
2018-08-16T20:41:17.893Z,2.80
2018-08-16T20:43:46.946Z,3.23
2018-08-16T20:46:15.992Z,3.47
2018-08-16T20:48:44.619Z,3.43
2018-08-16T20:51:13.259Z,3.40
2018-08-16T20:53:41.875Z,3.50
2018-08-16T20:56:10.293Z,3.83
2018-08-16T20:58:38.572Z,3.30
2018-08-16T21:01:07.216Z,3.20
2018-08-16T21:03:35.986Z,2.83
2018-08-16T21:06:04.607Z,3.30
2018-08-16T21:08:32.967Z,3.20
2018-08-16T21:11:01.537Z,3.20
2018-08-16T21:13:30.002Z,3.20
2018-08-16T21:15:58.648Z,2.60
2018-08-16T21:18:27.263Z,2.70
2018-08-16T21:20:56.058Z,2.57
2018-08-16T21:23:24.803Z,2.57
2018-08-16T21:25:53.240Z,2.60
2018-08-16T21:28:22.392Z,2.53
2018-08-16T21:30:50.980Z,2.40
2018-08-16T21:33:18.935Z,2.30
2018-08-16T21:35:47.490Z,2.20
2018-08-16T21:38:15.948Z,2.57
2018-08-16T21:40:44.579Z,2.43
2018-08-16T21:43:12.779Z,2.37
2018-08-16T21:45:41.039Z,2.80
2018-08-16T21:48:09.271Z,2.60
2018-08-16T21:50:37.754Z,2.33
2018-08-16T21:53:06.491Z,2.30
2018-08-16T21:55:34.786Z,2.47
2018-08-16T21:58:03.058Z,2.30
2018-08-16T22:00:45.499Z,2.30
2018-08-16T22:03:14.136Z,2.30
2018-08-16T22:05:47.164Z,2.30
2018-08-16T22:08:14.975Z,2.20
2018-08-16T22:10:44.175Z,2.30
2018-08-16T22:13:12.017Z,2.00
2018-08-16T22:15:40.643Z,1.87
2018-08-16T22:18:08.535Z,1.90
2018-08-16T22:20:37.110Z,1.97
2018-08-16T22:23:05.145Z,1.90
2018-08-16T22:25:33.075Z,2.33
2018-08-16T22:28:01.655Z,2.40
2018-08-16T22:30:29.447Z,2.57
2018-08-16T22:32:57.370Z,2.00
2018-08-16T22:35:25.205Z,2.10
2018-08-16T22:37:53.093Z,1.63
2018-08-16T22:40:20.890Z,2.23
2018-08-16T22:42:48.702Z,1.87
2018-08-16T22:45:17.179Z,1.80
2018-08-16T22:47:45.382Z,1.93
2018-08-16T22:50:13.899Z,1.80
2018-08-16T22:52:42.494Z,1.87
2018-08-16T22:55:10.951Z,2.17
2018-08-16T22:57:39.222Z,2.00
2018-08-16T23:00:07.826Z,1.70
2018-08-16T23:02:36.259Z,1.87
2018-08-16T23:05:04.238Z,1.90
2018-08-16T23:07:32.746Z,2.43
2018-08-16T23:10:01.182Z,1.97
2018-08-16T23:12:29.659Z,2.23
2018-08-16T23:14:58.347Z,1.90
2018-08-16T23:17:26.710Z,1.80
2018-08-16T23:19:55.103Z,1.93
2018-08-16T23:22:23.587Z,1.87
2018-08-16T23:24:52.219Z,1.80
2018-08-16T23:27:20.411Z,1.83
2018-08-16T23:29:48.708Z,1.80
2018-08-16T23:32:17.094Z,1.90
2018-08-16T23:34:45.578Z,1.97
2018-08-16T23:37:14.227Z,2.60
2018-08-16T23:39:42.663Z,2.60
2018-08-16T23:42:11.059Z,1.70
2018-08-16T23:44:39.343Z,1.70
2018-08-16T23:47:07.990Z,1.67
2018-08-16T23:49:36.624Z,1.83
2018-08-16T23:52:05.258Z,1.97
2018-08-16T23:54:33.699Z,1.50
2018-08-16T23:57:02.111Z,2.03
2018-08-16T23:59:30.402Z,1.80
